Flight Track Log - Related Links

Times and Time Zones

All times are in EST time to prevent confusion due to time zone crossing. See the UAL3836 flight status page for this flight to view local times or setup timezone preferences in your user account.


Time Position Orientation Groundspeed Altitude Reporting Facility
EST Latitude Longitude Course Direction KTS MPH feet Rate Location/Type
Sun 05:57:04 PM 41.9667 -87.8667 90° East 153 176 2,500  Level Chicago TRACON
Sun 05:58:04 PM 41.9500 -87.8000 109° East 220 253 3,900 1,755 Climbing Chicago TRACON
Sun 06:00:00 PM 41.9397 -87.2209 95° East  Level FlightAware Approximate
Sun 06:00:12 PM 41.9706 -87.6228 81° East 265 305 8,000  Level Chicago Center
Sun 06:01:00 PM 41.9333 -87.0510 90° East  Level FlightAware Approximate
Sun 06:01:14 PM 41.9933 -87.5214 73° East 279 321 10,300  Level Chicago Center
Sun 06:02:00 PM 41.9333 -86.8807 90° East  Level FlightAware Approximate
Sun 06:02:16 PM 42.0197 -87.3908 75° East 301 346 12,500  Level Chicago Center
Sun 06:03:18 PM 42.0014 -87.2714 102° East 336 387 14,200 1,403 Climbing Chicago Center
Sun 06:04:20 PM 41.9672 -87.1450 110° East 355 409 15,400 1,073 Climbing Chicago Center
Sun 06:05:21 PM 41.9461 -87.0056 101° East 383 441 16,400 976 Climbing Chicago Center
Sun 06:06:23 PM 41.9486 -86.8597 89° East 390 449 17,400 968 Climbing Chicago Center
Sun 06:07:25 PM 41.9503 -86.6925 89° East 403 464 18,400 774 Climbing Chicago Center
Sun 06:08:27 PM 41.9358 -86.5389 97° East 416 479 19,000 290 Climbing Chicago Center
Sun 06:09:29 PM 41.9061 -86.3769 104° East 443 510 19,000 387 Level Chicago Center
Sun 06:10:31 PM 41.8756 -86.2108 104° East 456 525 19,800 871 Climbing Chicago Center
Sun 06:11:33 PM 41.8464 -86.0478 103° East 451 519 20,800 968 Climbing Chicago Center
Sun 06:12:35 PM 41.8172 -85.8850 103° East 450 518 21,800 1,016 Climbing Chicago Center
Sun 06:13:37 PM 41.7344 -85.7178 124° Southeast 464 534 22,900 581 Climbing Chicago Center
Sun 06:14:39 PM 41.6389 -85.6031 138° Southeast 468 539 23,000 48 Climbing Chicago Center
Sun 06:15:41 PM 41.5389 -85.4847 138° Southeast 493 567 23,000 -290 Level Chicago Center
Sun 06:16:43 PM 41.4381 -85.3639 138° Southeast 497 572 22,400 -1,366 Descending Chicago Center
Sun 06:17:44 PM 41.3167 -85.2217 139° Southeast 492 566 20,200 -1,415 Descending Chicago Center
Sun 06:18:46 PM 41.2169 -85.1036 138° Southeast 484 557 19,500 -1,258 Descending Chicago Center
Sun 06:19:48 PM 41.1172 -84.9897 139° Southeast 479 551 17,600 -1,887 Descending Chicago Center
Sun 06:20:50 PM 41.0253 -84.8808 138° Southeast 456 525 15,600 -1,258 Descending Chicago Center
Sun 06:21:52 PM 40.9328 -84.7750 139° Southeast 442 509 15,000 -290 Descending Chicago Center
Sun 06:22:54 PM 40.8378 -84.6656 139° Southeast 449 517 15,000 -339 Level Chicago Center
Sun 06:23:56 PM 40.7267 -84.5389 139° Southeast 444 511 14,300 -1,048 Descending Chicago Center
Sun 06:25:00 PM 40.6294 -84.4269 139° Southeast 425 489 12,800 -1,416 Descending Indianapolis Center
Sun 06:25:25 PM 40.5942 -84.3881 140° Southeast 424 488 12,200 -1,377 Descending Indianapolis Center
Sun 06:26:01 PM 40.5356 -84.3408 149° Southeast 418 481 11,400 -1,161 Descending Indianapolis Center
Sun 06:26:27 PM 40.4950 -84.3097 150° Southeast 420 483 11,000 -1,000 Descending Indianapolis Center
Sun 06:27:01 PM 40.4375 -84.2733 154° Southeast 388 447 10,400 -1,082 Descending Indianapolis Center
Sun 06:27:28 PM 40.4022 -84.2500 153° Southeast 384 442 9,900 -1,475 Descending Indianapolis Center
Sun 06:28:02 PM 40.3528 -84.2167 153° Southeast 327 376 8,900 -1,839 Descending Indianapolis Center
Sun 06:28:30 PM 40.3239 -84.1961 152° Southeast 335 386 8,000 -2,262 Descending Indianapolis Center
Sun 06:29:03 PM 40.2822 -84.1683 153° Southeast 277 319 6,600 -2,419 Descending Indianapolis Center
Sun 06:29:32 PM 40.2558 -84.1503 152° Southeast 301 346 5,500 -2,900 Descending Indianapolis Center
Sun 06:30:03 PM 40.2111 -84.1253 157° South 256 295 3,700 -2,226 Descending Indianapolis Center
Sun 06:30:34 PM 40.1908 -84.1150 159° South 274 315 3,200 -764 Descending Indianapolis Center
Sun 06:30:58 PM 40.1542 -84.1042 167° South 235 270 3,000 -197 Descending Indianapolis Center
Sun 06:31:35 PM 40.1256 -84.0928 163° South 255 293 3,000  Level Indianapolis Center
Sun 06:31:59 PM 40.0894 -84.0817 167° South 241 277 3,000  Level Indianapolis Center
Sun 06:32:37 PM 40.0475 -84.0639 162° South 248 285 3,000 100 Level Indianapolis Center
Sun 06:32:59 PM 40.0175 -84.0636 180° South 247 284 3,100 97 Climbing Indianapolis Center
Sun 06:33:39 PM 39.9836 -84.0836 204° Southwest 248 285 3,100 -90 Level Indianapolis Center
Sun 06:34:06 PM 39.9639 -84.1142 230° Southwest 221 254 3,000 -581 Descending Indianapolis Center
Sun 06:34:41 PM 39.9503 -84.1422 238° Southwest 218 251 2,500 -984 Descending Indianapolis Center
Sun 06:35:07 PM 39.9375 -84.1642 233° Southwest 138 159 2,000 -677 Descending Indianapolis Center
Sun 06:35:43 PM 39.9239 -84.1903 236° Southwest 185 213 1,800 -700 Descending Indianapolis Center
Sun 06:36:07 PM 39.9164 -84.2042 235° Southwest 122 140 1,300 -1,250 Descending Indianapolis Center

Login

Don't have an account? Register now (free) for customized features, flight alerts, and more!